createdAt,value
2023-08-07T00:00:10.803Z,98633.41
2023-08-07T00:00:42.869Z,98628.81
2023-08-07T00:01:15.303Z,98633.41
2023-08-07T00:01:47.232Z,98633.69
2023-08-07T00:02:19.133Z,98631.00
2023-08-07T00:02:51.365Z,98634.28
2023-08-07T00:03:23.335Z,98635.00
2023-08-07T00:03:55.317Z,98635.50
2023-08-07T00:04:27.253Z,98632.25
2023-08-07T00:04:59.170Z,98636.38
2023-08-07T00:05:31.432Z,98636.38
2023-08-07T00:06:03.521Z,98637.22
2023-08-07T00:06:35.556Z,98632.56
2023-08-07T00:07:07.465Z,98631.88
2023-08-07T00:07:39.347Z,98645.94
2023-08-07T00:08:11.200Z,98641.44
2023-08-07T00:08:43.103Z,98630.44
2023-08-07T00:09:15.028Z,98637.88
2023-08-07T00:09:46.995Z,98629.25
2023-08-07T00:10:19.090Z,98635.84
2023-08-07T00:10:51.284Z,98631.03
2023-08-07T00:11:23.242Z,98632.97
2023-08-07T00:11:55.354Z,98626.06
2023-08-07T00:12:27.530Z,98630.50
2023-08-07T00:12:59.409Z,98634.88
2023-08-07T00:13:31.279Z,98636.31
2023-08-07T00:14:03.351Z,98632.41
2023-08-07T00:14:35.223Z,98636.50
2023-08-07T00:15:07.904Z,98638.75
2023-08-07T00:15:40.253Z,98641.06
2023-08-07T00:16:12.568Z,98646.41
2023-08-07T00:16:46.092Z,98637.09
2023-08-07T00:17:18.322Z,98641.31
2023-08-07T00:17:50.295Z,98637.81
2023-08-07T00:18:22.333Z,98639.34
2023-08-07T00:18:57.392Z,98645.56
2023-08-07T00:19:30.302Z,98647.25
2023-08-07T00:20:02.540Z,98647.13
2023-08-07T00:20:34.633Z,98639.22
2023-08-07T00:21:06.506Z,98648.97
2023-08-07T00:21:39.091Z,98641.63
2023-08-07T00:22:11.020Z,98637.25
2023-08-07T00:22:43.031Z,98645.88
2023-08-07T00:23:15.022Z,98647.00
2023-08-07T00:23:46.896Z,98642.44
2023-08-07T00:24:18.836Z,98643.53
2023-08-07T00:24:50.796Z,98638.19
2023-08-07T00:25:22.704Z,98644.13
2023-08-07T00:25:54.617Z,98643.03
2023-08-07T00:26:26.927Z,98644.13
2023-08-07T00:26:59.000Z,98639.88
2023-08-07T00:27:31.000Z,98643.69
2023-08-07T00:28:02.855Z,98648.75
2023-08-07T00:28:34.904Z,98648.13
2023-08-07T00:29:06.897Z,98648.69
2023-08-07T00:29:39.055Z,98646.69
2023-08-07T00:30:11.677Z,98654.44
2023-08-07T00:30:43.647Z,98649.81
2023-08-07T00:31:15.726Z,98650.63
2023-08-07T00:31:47.687Z,98651.63
2023-08-07T00:32:19.644Z,98646.88
2023-08-07T00:32:51.586Z,98650.53
2023-08-07T00:33:24.065Z,98640.78
2023-08-07T00:33:57.082Z,98646.88
2023-08-07T00:34:28.952Z,98641.91
2023-08-07T00:35:00.837Z,98645.44
2023-08-07T00:35:32.702Z,98643.47
2023-08-07T00:36:05.029Z,98639.94
2023-08-07T00:36:36.963Z,98650.41
2023-08-07T00:37:08.942Z,98644.19
2023-08-07T00:37:40.819Z,98643.72
2023-08-07T00:38:12.713Z,98635.97
2023-08-07T00:38:44.585Z,98631.47
2023-08-07T00:39:16.437Z,98642.03
2023-08-07T00:39:48.418Z,98634.75
2023-08-07T00:40:20.370Z,98640.66
2023-08-07T00:40:52.321Z,98637.25
2023-08-07T00:41:24.427Z,98641.06
2023-08-07T00:41:56.337Z,98634.41
2023-08-07T00:42:28.194Z,98638.75
2023-08-07T00:43:00.100Z,98638.53
2023-08-07T00:43:31.966Z,98647.00
2023-08-07T00:44:04.091Z,98641.63
2023-08-07T00:44:36.510Z,98638.84
2023-08-07T00:45:09.092Z,98642.38
2023-08-07T00:45:47.453Z,98636.69
2023-08-07T00:46:20.329Z,98642.44
2023-08-07T00:46:53.132Z,98638.66
2023-08-07T00:47:26.156Z,98640.47
2023-08-07T00:47:58.281Z,98636.69
2023-08-07T00:48:30.757Z,98633.88
2023-08-07T00:49:04.768Z,98638.38
2023-08-07T00:49:37.696Z,98633.41
2023-08-07T00:50:10.412Z,98638.75
2023-08-07T00:50:47.656Z,98637.25
2023-08-07T00:51:21.319Z,98642.63
2023-08-07T00:51:54.203Z,98632.34
2023-08-07T00:52:26.779Z,98629.47
2023-08-07T00:53:01.934Z,98629.47
2023-08-07T00:53:33.903Z,98630.50
2023-08-07T00:54:07.057Z,98638.00
2023-08-07T00:54:39.642Z,98631.97
2023-08-07T00:55:11.856Z,98633.53
2023-08-07T00:55:44.283Z,98632.50
2023-08-07T00:56:16.783Z,98636.47
2023-08-07T00:56:49.034Z,98632.19
2023-08-07T00:57:24.143Z,98637.31
2023-08-07T00:57:56.172Z,98640.19
2023-08-07T00:58:28.047Z,98637.66
2023-08-07T00:59:00.586Z,98628.91
2023-08-07T00:59:32.542Z,98636.53
2023-08-07T01:00:05.749Z,98635.41
2023-08-07T01:00:38.311Z,98631.88
2023-08-07T01:01:10.398Z,98635.00
2023-08-07T01:01:42.692Z,98629.28
2023-08-07T01:02:15.186Z,98637.88
2023-08-07T01:02:50.207Z,98632.53
2023-08-07T01:03:22.217Z,98636.47
2023-08-07T01:03:54.347Z,98629.28
2023-08-07T01:04:27.616Z,98637.19
2023-08-07T01:04:59.708Z,98629.28
2023-08-07T01:05:31.826Z,98633.38
2023-08-07T01:06:03.884Z,98634.34
2023-08-07T01:06:35.828Z,98640.56
2023-08-07T01:07:08.044Z,98639.69
2023-08-07T01:07:39.944Z,98637.22
2023-08-07T01:08:12.491Z,98639.22
2023-08-07T01:08:45.320Z,98644.72
2023-08-07T01:09:18.014Z,98638.06
2023-08-07T01:09:50.158Z,98638.91
2023-08-07T01:10:34.538Z,98641.91
2023-08-07T01:11:19.034Z,98636.13
2023-08-07T01:12:10.430Z,98632.22
2023-08-07T01:12:59.595Z,98645.56
2023-08-07T01:13:46.766Z,98639.22
2023-08-07T01:14:38.789Z,98641.50
2023-08-07T01:15:17.409Z,98633.59
2023-08-07T01:15:56.624Z,98640.66
2023-08-07T01:16:49.627Z,98641.91
2023-08-07T01:17:24.806Z,98639.22
2023-08-07T01:17:57.821Z,98645.03
2023-08-07T01:18:32.339Z,98645.59
2023-08-07T01:19:10.050Z,98641.22
2023-08-07T01:19:42.665Z,98644.63
2023-08-07T01:20:15.412Z,98639.38
2023-08-07T01:20:47.289Z,98638.25
2023-08-07T01:21:20.665Z,98643.22
2023-08-07T01:22:15.813Z,98641.94
2023-08-07T01:22:47.715Z,98637.72
2023-08-07T01:23:19.657Z,98643.34
2023-08-07T01:23:51.598Z,98638.25
2023-08-07T01:24:23.455Z,98646.56
2023-08-07T01:24:55.310Z,98638.66
2023-08-07T01:25:27.470Z,98638.09
2023-08-07T01:25:59.481Z,98634.44
2023-08-07T01:26:33.753Z,98643.31
2023-08-07T01:27:30.349Z,98645.31
2023-08-07T01:28:33.443Z,98642.47
2023-08-07T01:29:25.084Z,98647.06
2023-08-07T01:30:25.060Z,98642.16
2023-08-07T01:31:05.379Z,98641.72
2023-08-07T01:31:40.713Z,98646.47
2023-08-07T01:32:19.110Z,98650.97
2023-08-07T01:33:10.960Z,98646.03
2023-08-07T01:34:09.754Z,98650.41
2023-08-07T01:34:43.637Z,98645.31
2023-08-07T01:35:17.716Z,98651.47
2023-08-07T01:35:54.627Z,98653.44
2023-08-07T01:36:29.872Z,98656.72
2023-08-07T01:37:04.614Z,98655.28
2023-08-07T01:37:40.808Z,98659.91
2023-08-07T01:38:14.203Z,98649.91
2023-08-07T01:38:47.561Z,98650.63
2023-08-07T01:39:21.870Z,98657.94
2023-08-07T01:39:56.327Z,98654.31
2023-08-07T01:40:29.698Z,98651.75
2023-08-07T01:41:03.083Z,98662.19
2023-08-07T01:41:37.181Z,98658.94
2023-08-07T01:42:09.558Z,98661.03
2023-08-07T01:42:42.243Z,98656.91
2023-08-07T01:43:14.248Z,98659.75
2023-08-07T01:43:46.584Z,98663.97
2023-08-07T01:44:18.564Z,98664.09
2023-08-07T01:44:51.006Z,98673.38
2023-08-07T01:45:27.468Z,98665.75
2023-08-07T01:45:59.789Z,98667.44
2023-08-07T01:46:31.850Z,98660.59
2023-08-07T01:47:03.904Z,98665.75
2023-08-07T01:47:36.423Z,98662.22
2023-08-07T01:48:08.534Z,98656.88
2023-08-07T01:48:40.493Z,98657.84
2023-08-07T01:49:12.481Z,98661.59
2023-08-07T01:49:44.558Z,98665.25
2023-08-07T01:50:16.601Z,98662.69
2023-08-07T01:50:48.695Z,98668.59
2023-08-07T01:51:20.653Z,98660.94
2023-08-07T01:51:52.559Z,98655.28
2023-08-07T01:52:24.532Z,98656.25
2023-08-07T01:52:56.422Z,98663.69
2023-08-07T01:53:28.414Z,98659.06
2023-08-07T01:54:00.281Z,98661.00
2023-08-07T01:54:32.196Z,98662.72
2023-08-07T01:55:04.361Z,98660.91
2023-08-07T01:55:36.339Z,98660.59
2023-08-07T01:56:08.328Z,98657.06
2023-08-07T01:56:40.312Z,98661.28
2023-08-07T01:57:12.216Z,98650.13
2023-08-07T01:57:44.927Z,98660.38
2023-08-07T01:58:16.812Z,98657.22
2023-08-07T01:58:48.712Z,98650.72
2023-08-07T01:59:20.614Z,98652.00
2023-08-07T01:59:53.396Z,98658.34
2023-08-07T02:00:25.393Z,98654.94
2023-08-07T02:00:57.344Z,98656.75
2023-08-07T02:01:29.284Z,98657.63
2023-08-07T02:02:01.343Z,98649.84
2023-08-07T02:02:33.311Z,98658.72
2023-08-07T02:03:05.285Z,98656.91
2023-08-07T02:03:37.514Z,98658.03
2023-08-07T02:04:09.481Z,98656.31
2023-08-07T02:04:41.369Z,98660.69
2023-08-07T02:05:13.565Z,98654.34
2023-08-07T02:05:47.466Z,98652.69
2023-08-07T02:06:19.427Z,98671.38
2023-08-07T02:06:51.430Z,98667.88
2023-08-07T02:07:23.291Z,98664.47
2023-08-07T02:07:57.786Z,98667.00
2023-08-07T02:08:29.788Z,98660.06
2023-08-07T02:09:01.666Z,98665.31
2023-08-07T02:09:33.587Z,98666.28
2023-08-07T02:10:06.896Z,98653.06
2023-08-07T02:10:38.946Z,98660.94
2023-08-07T02:11:10.842Z,98655.84
2023-08-07T02:11:43.790Z,98658.19
2023-08-07T02:12:16.839Z,98658.44
2023-08-07T02:12:48.884Z,98655.78
2023-08-07T02:13:20.799Z,98663.78
2023-08-07T02:13:52.732Z,98660.66
2023-08-07T02:14:24.681Z,98661.75
2023-08-07T02:14:56.644Z,98663.44
2023-08-07T02:15:28.655Z,98659.19
2023-08-07T02:16:00.651Z,98661.03
2023-08-07T02:16:32.725Z,98660.91
2023-08-07T02:17:04.946Z,98658.22
2023-08-07T02:17:42.559Z,98659.94
2023-08-07T02:18:14.607Z,98663.44
2023-08-07T02:18:46.519Z,98653.84
2023-08-07T02:19:18.436Z,98656.53
2023-08-07T02:19:50.432Z,98654.59
2023-08-07T02:20:22.419Z,98658.94
2023-08-07T02:20:54.389Z,98660.66
2023-08-07T02:21:26.283Z,98659.69
2023-08-07T02:21:58.223Z,98655.31
2023-08-07T02:22:30.130Z,98662.34
2023-08-07T02:23:02.083Z,98656.41
2023-08-07T02:23:35.563Z,98657.28
2023-08-07T02:24:07.479Z,98660.91
2023-08-07T02:24:39.590Z,98659.09
2023-08-07T02:25:11.479Z,98654.59
2023-08-07T02:25:43.419Z,98661.63
2023-08-07T02:26:15.332Z,98654.59
2023-08-07T02:26:47.261Z,98654.59
2023-08-07T02:27:19.178Z,98652.03
2023-08-07T02:27:51.129Z,98658.34
2023-08-07T02:28:23.055Z,98654.81
2023-08-07T02:28:54.962Z,98651.56
2023-08-07T02:29:26.905Z,98651.56
2023-08-07T02:29:58.935Z,98652.66
2023-08-07T02:30:32.407Z,98657.06
2023-08-07T02:31:04.455Z,98652.66
2023-08-07T02:31:36.352Z,98659.72
2023-08-07T02:32:08.537Z,98648.44
2023-08-07T02:32:42.718Z,98652.94
2023-08-07T02:33:14.648Z,98659.13
2023-08-07T02:33:46.542Z,98656.56
2023-08-07T02:34:18.435Z,98660.22
2023-08-07T02:34:50.302Z,98659.38
2023-08-07T02:35:22.437Z,98649.53
2023-08-07T02:35:54.366Z,98654.03
2023-08-07T02:36:26.279Z,98659.38
2023-08-07T02:36:58.288Z,98652.44
2023-08-07T02:37:30.393Z,98648.34
2023-08-07T02:38:02.317Z,98650.91
2023-08-07T02:38:34.480Z,98654.78
2023-08-07T02:39:06.422Z,98657.34
2023-08-07T02:39:38.619Z,98659.88
2023-08-07T02:40:12.179Z,98653.09
2023-08-07T02:40:44.930Z,98650.28
2023-08-07T02:41:16.831Z,98649.56
2023-08-07T02:41:48.820Z,98651.25
2023-08-07T02:42:21.210Z,98651.41
2023-08-07T02:42:53.221Z,98645.22
2023-08-07T02:43:25.185Z,98652.22
2023-08-07T02:43:57.118Z,98647.75
2023-08-07T02:44:29.036Z,98652.00
2023-08-07T02:45:00.972Z,98650.16
2023-08-07T02:45:32.943Z,98647.38
2023-08-07T02:46:05.081Z,98647.47
2023-08-07T02:46:37.375Z,98658.16
2023-08-07T02:47:09.273Z,98654.69
2023-08-07T02:47:41.384Z,98652.97
2023-08-07T02:48:13.579Z,98648.47
2023-08-07T02:48:45.632Z,98657.34
2023-08-07T02:49:17.599Z,98655.50
2023-08-07T02:49:49.513Z,98655.63
2023-08-07T02:50:21.433Z,98651.41
2023-08-07T02:50:54.371Z,98660.25
2023-08-07T02:51:26.307Z,98662.91
2023-08-07T02:51:58.229Z,98655.91
2023-08-07T02:52:31.290Z,98659.53
2023-08-07T02:53:03.789Z,98655.16
2023-08-07T02:53:35.707Z,98665.00
2023-08-07T02:54:07.718Z,98663.44
2023-08-07T02:54:39.822Z,98662.56
2023-08-07T02:55:11.824Z,98665.25
2023-08-07T02:55:45.103Z,98670.59
2023-08-07T02:56:17.053Z,98661.00
2023-08-07T02:56:50.170Z,98664.66
2023-08-07T02:57:22.122Z,98662.94
2023-08-07T02:57:54.284Z,98671.09
2023-08-07T02:58:26.177Z,98677.41
2023-08-07T02:59:00.378Z,98665.16
2023-08-07T02:59:32.306Z,98671.72
2023-08-07T03:00:04.660Z,98674.84
2023-08-07T03:00:36.925Z,98676.69
2023-08-07T03:01:09.449Z,98673.03
2023-08-07T03:01:41.436Z,98676.44
2023-08-07T03:02:13.381Z,98673.88
2023-08-07T03:02:45.320Z,98680.06
2023-08-07T03:03:17.325Z,98674.97
2023-08-07T03:03:49.259Z,98678.59
2023-08-07T03:04:21.214Z,98679.56
2023-08-07T03:04:53.112Z,98675.22
2023-08-07T03:05:25.055Z,98675.47
2023-08-07T03:05:56.978Z,98686.97
2023-08-07T03:06:28.872Z,98685.41
2023-08-07T03:07:01.611Z,98681.78
2023-08-07T03:07:33.571Z,98678.38
2023-08-07T03:08:05.587Z,98685.53
2023-08-07T03:08:37.459Z,98686.63
2023-08-07T03:09:09.409Z,98683.47
2023-08-07T03:09:41.371Z,98680.59
2023-08-07T03:10:13.286Z,98684.47
2023-08-07T03:10:56.975Z,98672.78
2023-08-07T03:11:28.885Z,98670.38
2023-08-07T03:12:04.777Z,98681.78
2023-08-07T03:12:38.691Z,98674.75
2023-08-07T03:13:10.611Z,98674.63
2023-08-07T03:13:43.376Z,98676.31
2023-08-07T03:14:15.374Z,98670.88
2023-08-07T03:14:47.344Z,98678.03
2023-08-07T03:15:19.291Z,98678.88
2023-08-07T03:15:51.705Z,98677.91
2023-08-07T03:16:23.743Z,98683.97
2023-08-07T03:16:55.975Z,98675.00
2023-08-07T03:17:28.238Z,98677.53
2023-08-07T03:18:00.276Z,98680.06
2023-08-07T03:18:33.267Z,98684.47
2023-08-07T03:19:05.211Z,98687.97
2023-08-07T03:19:37.155Z,98671.97
2023-08-07T03:20:10.586Z,98683.94
2023-08-07T03:20:42.928Z,98685.91
2023-08-07T03:21:14.862Z,98683.09
2023-08-07T03:21:46.803Z,98682.03
2023-08-07T03:22:18.742Z,98678.16
2023-08-07T03:22:50.685Z,98683.38
2023-08-07T03:23:24.153Z,98677.91
2023-08-07T03:23:56.127Z,98685.06
2023-08-07T03:24:28.030Z,98682.25
2023-08-07T03:24:59.986Z,98681.19
2023-08-07T03:25:31.979Z,98685.69
2023-08-07T03:26:50.319Z,98686.03
2023-08-07T03:27:22.553Z,98680.91
2023-08-07T03:27:54.464Z,98678.59
2023-08-07T03:28:26.322Z,98683.00
2023-08-07T03:28:58.223Z,98681.16
2023-08-07T03:29:30.165Z,98694.63
2023-08-07T03:30:02.049Z,98682.25
2023-08-07T03:30:33.983Z,98684.81
2023-08-07T03:31:06.092Z,98686.88
2023-08-07T03:31:38.051Z,98684.19
2023-08-07T03:32:10.730Z,98683.25
2023-08-07T03:32:43.039Z,98693.91
2023-08-07T03:33:15.000Z,98692.22
2023-08-07T03:33:46.854Z,98692.22
2023-08-07T03:34:19.086Z,98687.84
2023-08-07T03:34:50.968Z,98691.38
2023-08-07T03:35:22.924Z,98695.00
2023-08-07T03:35:55.003Z,98692.31
2023-08-07T03:36:26.918Z,98696.00
2023-08-07T03:37:00.663Z,98694.28
2023-08-07T03:37:32.625Z,98700.72
2023-08-07T03:38:04.611Z,98692.47
2023-08-07T03:38:36.501Z,98689.06
2023-08-07T03:39:09.013Z,98691.88
2023-08-07T03:39:41.079Z,98696.22
2023-08-07T03:40:13.046Z,98692.72
2023-08-07T03:40:44.992Z,98694.28
2023-08-07T03:41:17.038Z,98700.47
2023-08-07T03:41:48.974Z,98693.31
2023-08-07T03:42:20.965Z,98696.84
2023-08-07T03:42:52.956Z,98702.19
2023-08-07T03:43:25.049Z,98692.47
2023-08-07T03:43:56.942Z,98696.00
2023-08-07T03:44:28.938Z,98696.00
2023-08-07T03:45:00.887Z,98699.50
2023-08-07T03:45:32.820Z,98699.50
2023-08-07T03:46:04.806Z,98692.31
2023-08-07T03:46:36.736Z,98689.66
2023-08-07T03:47:08.691Z,98698.41
2023-08-07T03:47:40.733Z,98700.94
2023-08-07T03:48:12.786Z,98698.16
2023-08-07T03:48:44.715Z,98700.72
2023-08-07T03:49:16.619Z,98697.91
2023-08-07T03:49:48.865Z,98704.09
2023-08-07T03:50:20.841Z,98700.25
2023-08-07T03:50:52.720Z,98701.09
2023-08-07T03:51:24.639Z,98699.38
2023-08-07T03:51:57.540Z,98694.66
2023-08-07T03:52:29.406Z,98706.06
2023-08-07T03:53:01.607Z,98696.47
2023-08-07T03:53:33.622Z,98701.94
2023-08-07T03:54:05.497Z,98698.44
2023-08-07T03:54:37.525Z,98699.13
2023-08-07T03:55:09.588Z,98701.94
2023-08-07T03:55:43.157Z,98705.59
2023-08-07T03:56:15.165Z,98698.28
2023-08-07T03:56:48.116Z,98700.94
2023-08-07T03:57:19.984Z,98703.63
2023-08-07T03:57:51.938Z,98700.94
2023-08-07T03:58:23.858Z,98708.84
2023-08-07T03:58:55.772Z,98701.56
2023-08-07T03:59:30.297Z,98703.50
2023-08-07T04:00:02.304Z,98707.03
2023-08-07T04:00:34.280Z,98708.84
2023-08-07T04:01:06.350Z,98706.19
2023-08-07T04:01:38.252Z,98704.47
2023-08-07T04:02:10.207Z,98714.19
2023-08-07T04:02:42.344Z,98710.81
2023-08-07T04:03:14.394Z,98717.84
2023-08-07T04:03:49.381Z,98715.16
2023-08-07T04:04:21.474Z,98713.59
2023-08-07T04:04:53.389Z,98718.81
2023-08-07T04:05:25.454Z,98724.16
2023-08-07T04:05:57.552Z,98724.16
2023-08-07T04:06:30.115Z,98715.16
2023-08-07T04:07:02.058Z,98716.00
2023-08-07T04:07:34.187Z,98723.16
2023-08-07T04:08:06.084Z,98716.38
2023-08-07T04:08:38.042Z,98726.69
2023-08-07T04:09:11.384Z,98722.31
2023-08-07T04:09:43.379Z,98722.81
2023-08-07T04:10:15.418Z,98719.19
2023-08-07T04:10:47.892Z,98719.88
2023-08-07T04:11:19.819Z,98720.75
2023-08-07T04:11:51.707Z,98714.69
2023-08-07T04:12:23.972Z,98724.25
2023-08-07T04:12:55.861Z,98720.75
2023-08-07T04:13:29.256Z,98720.75
2023-08-07T04:14:01.149Z,98724.97
2023-08-07T04:14:33.020Z,98715.03
2023-08-07T04:15:05.273Z,98723.66
2023-08-07T04:15:37.225Z,98719.16
2023-08-07T04:16:09.217Z,98719.16
2023-08-07T04:16:41.860Z,98717.56
2023-08-07T04:17:13.811Z,98714.88
2023-08-07T04:17:45.776Z,98722.78
2023-08-07T04:18:18.101Z,98719.28
2023-08-07T04:18:49.987Z,98725.47
2023-08-07T04:19:22.017Z,98721.94
2023-08-07T04:19:53.890Z,98724.50
2023-08-07T04:20:25.971Z,98718.31
2023-08-07T04:20:58.807Z,98711.84
2023-08-07T04:21:31.770Z,98716.34
2023-08-07T04:22:03.926Z,98720.63
2023-08-07T04:22:35.861Z,98722.28
2023-08-07T04:23:07.800Z,98720.47
2023-08-07T04:23:41.630Z,98718.53
2023-08-07T04:24:15.322Z,98711.22
2023-08-07T04:24:47.457Z,98713.19
2023-08-07T04:25:19.382Z,98712.94
2023-08-07T04:25:52.287Z,98713.78
2023-08-07T04:26:24.242Z,98715.59
2023-08-07T04:26:56.330Z,98709.16
2023-08-07T04:27:28.593Z,98710.50
2023-08-07T04:28:00.510Z,98709.53
2023-08-07T04:28:32.578Z,98712.78
2023-08-07T04:29:04.848Z,98706.44
2023-08-07T04:29:36.756Z,98716.19
2023-08-07T04:30:09.201Z,98711.53
2023-08-07T04:30:42.759Z,98706.81
2023-08-07T04:31:15.064Z,98711.06
2023-08-07T04:31:47.028Z,98710.69
2023-08-07T04:32:18.995Z,98705.19
2023-08-07T04:32:50.946Z,98709.56
2023-08-07T04:33:23.164Z,98717.22
2023-08-07T04:33:55.172Z,98709.91
2023-08-07T04:34:27.085Z,98709.63
2023-08-07T04:35:00.187Z,98716.44
2023-08-07T04:35:32.428Z,98718.84
2023-08-07T04:36:04.732Z,98719.69
2023-08-07T04:36:36.592Z,98719.59
2023-08-07T04:37:08.681Z,98715.09
2023-08-07T04:37:41.827Z,98714.81
2023-08-07T04:38:18.638Z,98721.28
2023-08-07T04:38:51.378Z,98721.53
2023-08-07T04:39:23.804Z,98717.16
2023-08-07T04:39:55.708Z,98719.97
2023-08-07T04:40:27.663Z,98719.97
2023-08-07T04:40:59.572Z,98719.97
2023-08-07T04:41:31.436Z,98721.66
2023-08-07T04:42:03.519Z,98720.69
2023-08-07T04:42:35.437Z,98713.91
2023-08-07T04:43:07.277Z,98717.44
2023-08-07T04:43:39.188Z,98711.34
2023-08-07T04:44:11.114Z,98714.03
2023-08-07T04:44:43.039Z,98713.06
2023-08-07T04:45:15.270Z,98716.59
2023-08-07T04:45:47.194Z,98714.28
2023-08-07T04:46:19.152Z,98715.00
2023-08-07T04:46:51.497Z,98707.72
2023-08-07T04:47:23.470Z,98708.69
2023-08-07T04:47:55.462Z,98715.59
2023-08-07T04:48:27.450Z,98714.50
2023-08-07T04:49:00.159Z,98718.03
2023-08-07T04:49:32.255Z,98713.50
2023-08-07T04:50:04.903Z,98714.34
2023-08-07T04:50:36.872Z,98714.25
2023-08-07T04:51:08.812Z,98714.94
2023-08-07T04:51:40.711Z,98715.69
2023-08-07T04:52:24.441Z,98710.91
2023-08-07T04:52:57.779Z,98716.75
2023-08-07T04:53:29.913Z,98706.50
2023-08-07T04:54:02.027Z,98710.00
2023-08-07T04:54:33.899Z,98714.50
2023-08-07T04:55:06.270Z,98710.00
2023-08-07T04:55:38.291Z,98713.53
2023-08-07T04:56:10.244Z,98713.28
2023-08-07T04:56:43.490Z,98709.03
2023-08-07T04:57:15.386Z,98709.16
2023-08-07T04:57:48.253Z,98714.50
2023-08-07T04:58:20.223Z,98711.97
2023-08-07T04:58:52.186Z,98703.38
2023-08-07T04:59:24.135Z,98708.31
2023-08-07T04:59:56.044Z,98714.25
2023-08-07T05:00:28.763Z,98707.53
2023-08-07T05:01:01.423Z,98700.38
2023-08-07T05:01:33.396Z,98696.97
2023-08-07T05:02:05.825Z,98706.56
2023-08-07T05:02:37.874Z,98703.38
2023-08-07T05:03:10.121Z,98699.47
2023-08-07T05:03:42.350Z,98699.81
2023-08-07T05:04:14.299Z,98705.47
2023-08-07T05:04:46.576Z,98701.81
2023-08-07T05:05:22.510Z,98705.81
2023-08-07T05:06:01.629Z,98701.34
2023-08-07T05:06:33.753Z,98706.31
2023-08-07T05:07:05.913Z,98700.44
2023-08-07T05:07:37.932Z,98700.16
2023-08-07T05:08:09.842Z,98700.72
2023-08-07T05:08:42.101Z,98704.16
2023-08-07T05:09:14.045Z,98698.25
2023-08-07T05:09:46.010Z,98706.84
2023-08-07T05:10:18.083Z,98701.94
2023-08-07T05:10:50.002Z,98702.25
2023-08-07T05:11:21.916Z,98703.56
2023-08-07T05:11:54.068Z,98701.88
2023-08-07T05:12:26.204Z,98703.19
2023-08-07T05:12:58.212Z,98703.34
2023-08-07T05:13:30.118Z,98705.47
2023-08-07T05:14:03.357Z,98706.31
2023-08-07T05:14:35.293Z,98710.94
2023-08-07T05:15:07.815Z,98705.06
2023-08-07T05:15:39.758Z,98722.28
2023-08-07T05:16:11.681Z,98712.75
2023-08-07T05:16:43.803Z,98705.84
2023-08-07T05:17:15.799Z,98703.28
2023-08-07T05:17:47.737Z,98709.78
2023-08-07T05:18:20.426Z,98710.50
2023-08-07T05:18:52.308Z,98708.78
2023-08-07T05:19:24.269Z,98709.78
2023-08-07T05:19:56.191Z,98712.31
2023-08-07T05:20:28.238Z,98713.88
2023-08-07T05:21:00.121Z,98717.69
2023-08-07T05:21:32.063Z,98715.13
2023-08-07T05:22:04.375Z,98724.16
2023-08-07T05:22:36.293Z,98720.22
2023-08-07T05:23:08.314Z,98713.88
2023-08-07T05:23:40.282Z,98723.63
2023-08-07T05:24:13.601Z,98719.38
2023-08-07T05:24:46.657Z,98718.78
2023-08-07T05:25:19.703Z,98718.66
2023-08-07T05:25:51.767Z,98726.00
2023-08-07T05:26:23.725Z,98723.72
2023-08-07T05:26:55.620Z,98722.84
2023-08-07T05:27:30.442Z,98727.84
2023-08-07T05:28:02.422Z,98723.34
2023-08-07T05:28:34.380Z,98727.00
2023-08-07T05:29:08.187Z,98718.34
2023-08-07T05:29:45.931Z,98725.28
2023-08-07T05:30:17.865Z,98725.72
2023-08-07T05:30:49.915Z,98720.38
2023-08-07T05:31:21.909Z,98727.84
2023-08-07T05:31:54.181Z,98728.94
2023-08-07T05:32:26.402Z,98728.69
2023-08-07T05:32:58.377Z,98722.19
2023-08-07T05:33:30.322Z,98730.53
2023-08-07T05:34:02.268Z,98731.63
2023-08-07T05:34:34.177Z,98725.53
2023-08-07T05:35:07.967Z,98733.41
2023-08-07T05:35:40.573Z,98738.69
2023-08-07T05:36:12.867Z,98731.38
2023-08-07T05:36:44.779Z,98735.16
2023-08-07T05:37:16.805Z,98742.09
2023-08-07T05:37:48.776Z,98737.31
2023-08-07T05:38:20.720Z,98733.63
2023-08-07T05:38:52.813Z,98726.16
2023-08-07T05:39:24.881Z,98736.88
2023-08-07T05:39:56.754Z,98734.06
2023-08-07T05:40:28.681Z,98718.81
2023-08-07T05:41:00.588Z,98726.34
2023-08-07T05:41:32.668Z,98730.28
2023-08-07T05:42:05.012Z,98737.59
2023-08-07T05:42:36.997Z,98732.22
2023-08-07T05:43:09.881Z,98730.00
2023-08-07T05:43:41.867Z,98735.94
2023-08-07T05:44:13.759Z,98729.59
2023-08-07T05:44:46.221Z,98737.47
2023-08-07T05:45:18.103Z,98734.50
2023-08-07T05:45:50.353Z,98738.44
2023-08-07T05:46:22.360Z,98736.38
2023-08-07T05:46:54.367Z,98737.91
2023-08-07T05:47:26.515Z,98731.56
2023-08-07T05:47:58.505Z,98735.78
2023-08-07T05:48:30.464Z,98738.34
2023-08-07T05:49:02.446Z,98735.50
2023-08-07T05:49:34.807Z,98737.22
2023-08-07T05:50:07.311Z,98735.22
2023-08-07T05:50:39.194Z,98732.53
2023-08-07T05:51:11.075Z,98733.56
2023-08-07T05:51:43.024Z,98730.97
2023-08-07T05:52:15.781Z,98730.44
2023-08-07T05:52:47.728Z,98735.38
2023-08-07T05:53:19.715Z,98730.28
2023-08-07T05:53:51.658Z,98732.56
2023-08-07T05:54:23.552Z,98734.94
2023-08-07T05:54:55.423Z,98734.22
2023-08-07T05:55:27.354Z,98733.38
2023-08-07T05:55:59.287Z,98733.53
2023-08-07T05:56:31.171Z,98738.34
2023-08-07T05:57:03.170Z,98739.59
2023-08-07T05:57:36.295Z,98744.28
2023-08-07T05:58:08.209Z,98738.50
2023-08-07T05:58:40.096Z,98744.16
2023-08-07T05:59:12.078Z,98750.63
2023-08-07T05:59:44.214Z,98744.69
2023-08-07T06:00:18.955Z,98740.47
2023-08-07T06:00:50.910Z,98741.03
2023-08-07T06:01:23.469Z,98745.38
2023-08-07T06:01:59.444Z,98741.88
2023-08-07T06:02:32.333Z,98738.63
2023-08-07T06:03:04.448Z,98730.28
2023-08-07T06:03:36.413Z,98739.03
2023-08-07T06:04:08.411Z,98739.59
2023-08-07T06:04:42.084Z,98733.91
2023-08-07T06:05:15.936Z,98734.81
2023-08-07T06:05:48.117Z,98733.66
2023-08-07T06:06:20.253Z,98734.50
2023-08-07T06:06:52.222Z,98737.03
2023-08-07T06:07:24.231Z,98739.88
2023-08-07T06:07:56.076Z,98741.59
2023-08-07T06:08:27.958Z,98744.66
2023-08-07T06:09:01.179Z,98739.00
2023-08-07T06:09:33.312Z,98746.31
2023-08-07T06:10:06.216Z,98743.38
2023-08-07T06:10:39.032Z,98743.69
2023-08-07T06:11:10.895Z,98746.09
2023-08-07T06:11:43.070Z,98745.38
2023-08-07T06:12:14.974Z,98746.06
2023-08-07T06:12:46.901Z,98744.38
2023-08-07T06:13:30.398Z,98745.22
2023-08-07T06:14:07.631Z,98748.19
2023-08-07T06:14:39.801Z,98741.59
2023-08-07T06:15:11.764Z,98744.28
2023-08-07T06:15:43.695Z,98739.00
2023-08-07T06:16:15.656Z,98738.91
2023-08-07T06:16:47.675Z,98747.94
2023-08-07T06:17:19.658Z,98749.19
2023-08-07T06:17:53.212Z,98742.69
2023-08-07T06:18:25.183Z,98736.28
2023-08-07T06:18:57.094Z,98742.91
2023-08-07T06:19:32.701Z,98737.06
2023-08-07T06:20:06.260Z,98742.72
2023-08-07T06:20:38.239Z,98732.16
2023-08-07T06:21:11.903Z,98730.88
2023-08-07T06:21:43.805Z,98737.94
2023-08-07T06:22:15.727Z,98733.84
2023-08-07T06:22:47.590Z,98734.06
2023-08-07T06:23:20.532Z,98740.09
2023-08-07T06:23:53.045Z,98738.34
2023-08-07T06:24:26.406Z,98739.66
2023-08-07T06:24:59.644Z,98741.22
2023-08-07T06:25:31.575Z,98735.44
2023-08-07T06:26:06.311Z,98735.72
2023-08-07T06:26:38.239Z,98737.88